Terminal Aerodrome Forecast
Issued by NWS

Home | Current Version | Previous Version | Text Only | Print | Product List | Glossary On
Versions: 1 2 3 4 5 6 7 8 9 10 11 12 13 14 15 16 17 18 19 20 21 22 23 24 25 26 27 28
000
FTUS46 KLOX 212300 RRA
TAFLAX
TAF
KLAX 212340Z 2200/2306 27011KT P6SM SCT250
     FM220200 30006KT P6SM SCT250
     FM220500 VRB04KT P6SM SCT250
     FM221000 05005KT P6SM SCT250
     FM221700 VRB03KT P6SM SCT250
     FM222000 27011KT P6SM SCT250
     FM230300 28006KT P6SM BKN250=

USA.gov is the U.S. government's official web portal to all federal, state and local government web resources and services.